CSAV Morumbi — A8HR8 — position and weather

sailwx.info

Track history (hours):
 
Tides and Currents Weather Stations Pressure Air Temp Water Temp Dewpoint Dewpoint Depression Visibility Wind Speed Wind Dir Waves Ship Positions

CSAV Morumbi

Last reported at 2018-Feb-15 17:16 UTC. Time now 2018-Feb-22 11:13 UTC.
Position N 01°13' E 103°30'.

Length 211 m; draft 11.8 m.

Type: Ship (hazmat cat A). MMSI: 636090935.

Date/timePositionNaut miles runAvg speedWind from/ knotsBaromVisibWave heightAir tempDewpointWater temp
2018-Feb-15 17:16N 01°13' E 103°30'416.6
2018-Feb-15 17:00N 01°12' E 103°34'711.0
2018-Feb-15 16:23N 01°13' E 103°41'512.5
2018-Feb-15 15:58N 01°16' E 103°45'2 4.5
2018-Feb-15 15:30N 01°16' E 103°47'0 0.1
2018-Feb-15 15:00N 01°16' E 103°47'0 0.0
2018-Feb-15 14:24N 01°16' E 103°47'0 0.0
2018-Feb-15 14:00N 01°16' E 103°47'0 0.0
2018-Feb-15 13:30N 01°16' E 103°47'0 0.0
2018-Feb-15 12:54N 01°16' E 103°47'0 0.0
2018-Feb-15 12:24N 01°16' E 103°47'0 0.0
2018-Feb-15 11:48N 01°16' E 103°47'0 0.0
2018-Feb-15 11:30N 01°16' E 103°47'0 0.0
2018-Feb-15 10:57N 01°16' E 103°47'0 0.0
2018-Feb-15 10:24N 01°16' E 103°47'0 0.0
2018-Feb-15 09:54N 01°16' E 103°47'0 0.0
2018-Feb-15 09:30N 01°16' E 103°47'0 0.0
2018-Feb-15 09:00N 01°16' E 103°47'0 0.0
2018-Feb-15 08:27N 01°16' E 103°47'0 0.0
2018-Feb-15 07:45N 01°16' E 103°47'0 0.0
2018-Feb-15 07:27N 01°16' E 103°47'0 0.0
2018-Feb-15 06:57N 01°16' E 103°47'0 0.0
2018-Feb-15 06:24N 01°16' E 103°47'0 0.0
2018-Feb-15 05:54N 01°16' E 103°47'0 0.0
2018-Feb-15 05:30N 01°16' E 103°47'0 0.0
2018-Feb-15 04:24N 01°16' E 103°47'0 0.0
2018-Feb-15 03:51N 01°16' E 103°47'0 0.0
2018-Feb-15 03:30N 01°16' E 103°47'1 1.7
2018-Feb-15 03:00N 01°15' E 103°47'4 7.7
2018-Feb-15 02:30N 01°12' E 103°50'3 6.2
2018-Feb-15 01:57N 01°16' E 103°50'0 0.5
2018-Feb-15 01:08N 01°16' E 103°50'0 0.0
2018-Feb-14 23:02N 01°16' E 103°50'0 0.0
2018-Feb-14 22:56N 01°16' E 103°50'0 0.0
2018-Feb-14 20:50N 01°16' E 103°50'0 0.0
2018-Feb-14 19:59N 01°16' E 103°50'0 0.0
2018-Feb-14 19:02N 01°16' E 103°50'0 0.0
2018-Feb-14 18:56N 01°16' E 103°50'0 0.0
2018-Feb-14 18:26N 01°16' E 103°50'0 0.0
2018-Feb-14 16:44N 01°16' E 103°50'0 0.0
2018-Feb-14 15:14N 01°16' E 103°50'0 0.0
2018-Feb-14 10:05N 01°16' E 103°50'0 0.0
2018-Feb-14 09:44N 01°16' E 103°50'0 0.0
2018-Feb-14 09:21N 01°16' E 103°50'1 1.5
2018-Feb-14 08:47N 01°16' E 103°50'2 5.3
2018-Feb-14 08:30N 01°15' E 103°52'2 3.9
2018-Feb-14 07:55N 01°14' E 103°54'3 6.7
2018-Feb-14 07:27N 01°11' E 103°51'511.6
2018-Feb-14 07:00N 01°09' E 103°47'713.0
2018-Feb-14 06:30N 01°04' E 103°42'913.2
2018-Feb-14 05:48N 01°06' E 103°33'515.9
2018-Feb-14 05:29N 01°09' E 103°29'  
Track history (hours):
 
Tides and Currents Weather Stations Pressure Air Temp Water Temp Dewpoint Dewpoint Depression Visibility Wind Speed Wind Dir Waves Ship Positions

CSAV Morumbi

Last reported at 2018-Feb-15 17:16 UTC. Time now 2018-Feb-22 11:13 UTC.
Position N 01°13' E 103°30'.

Length 211 m; draft 11.8 m.

Type: Ship (hazmat cat A). MMSI: 636090935.

Date/timePositionNaut miles runAvg speedWind from/ knotsBaromVisibWave heightAir tempDewpointWater temp
2018-Feb-15 17:16N 01°13' E 103°30'416.6
2018-Feb-15 17:00N 01°12' E 103°34'711.0
2018-Feb-15 16:23N 01°13' E 103°41'512.5
2018-Feb-15 15:58N 01°16' E 103°45'2 4.5
2018-Feb-15 15:30N 01°16' E 103°47'0 0.1
2018-Feb-15 15:00N 01°16' E 103°47'0 0.0
2018-Feb-15 14:24N 01°16' E 103°47'0 0.0
2018-Feb-15 14:00N 01°16' E 103°47'0 0.0
2018-Feb-15 13:30N 01°16' E 103°47'0 0.0
2018-Feb-15 12:54N 01°16' E 103°47'0 0.0
2018-Feb-15 12:24N 01°16' E 103°47'0 0.0
2018-Feb-15 11:48N 01°16' E 103°47'0 0.0
2018-Feb-15 11:30N 01°16' E 103°47'0 0.0
2018-Feb-15 10:57N 01°16' E 103°47'0 0.0
2018-Feb-15 10:24N 01°16' E 103°47'0 0.0
2018-Feb-15 09:54N 01°16' E 103°47'0 0.0
2018-Feb-15 09:30N 01°16' E 103°47'0 0.0
2018-Feb-15 09:00N 01°16' E 103°47'0 0.0
2018-Feb-15 08:27N 01°16' E 103°47'0 0.0
2018-Feb-15 07:45N 01°16' E 103°47'0 0.0
2018-Feb-15 07:27N 01°16' E 103°47'0 0.0
2018-Feb-15 06:57N 01°16' E 103°47'0 0.0
2018-Feb-15 06:24N 01°16' E 103°47'0 0.0
2018-Feb-15 05:54N 01°16' E 103°47'0 0.0
2018-Feb-15 05:30N 01°16' E 103°47'0 0.0
2018-Feb-15 04:24N 01°16' E 103°47'0 0.0
2018-Feb-15 03:51N 01°16' E 103°47'0 0.0
2018-Feb-15 03:30N 01°16' E 103°47'1 1.7
2018-Feb-15 03:00N 01°15' E 103°47'4 7.7
2018-Feb-15 02:30N 01°12' E 103°50'3 6.2
2018-Feb-15 01:57N 01°16' E 103°50'0 0.5
2018-Feb-15 01:08N 01°16' E 103°50'0 0.0
2018-Feb-14 23:02N 01°16' E 103°50'0 0.0
2018-Feb-14 22:56N 01°16' E 103°50'0 0.0
2018-Feb-14 20:50N 01°16' E 103°50'0 0.0
2018-Feb-14 19:59N 01°16' E 103°50'0 0.0
2018-Feb-14 19:02N 01°16' E 103°50'0 0.0
2018-Feb-14 18:56N 01°16' E 103°50'0 0.0
2018-Feb-14 18:26N 01°16' E 103°50'0 0.0
2018-Feb-14 16:44N 01°16' E 103°50'0 0.0
2018-Feb-14 15:14N 01°16' E 103°50'0 0.0
2018-Feb-14 10:05N 01°16' E 103°50'0 0.0
2018-Feb-14 09:44N 01°16' E 103°50'0 0.0
2018-Feb-14 09:21N 01°16' E 103°50'1 1.5
2018-Feb-14 08:47N 01°16' E 103°50'2 5.3
2018-Feb-14 08:30N 01°15' E 103°52'2 3.9
2018-Feb-14 07:55N 01°14' E 103°54'3 6.7
2018-Feb-14 07:27N 01°11' E 103°51'511.6
2018-Feb-14 07:00N 01°09' E 103°47'713.0
2018-Feb-14 06:30N 01°04' E 103°42'913.2
2018-Feb-14 05:48N 01°06' E 103°33'515.9
2018-Feb-14 05:29N 01°09' E 103°29'  

Dump ship's entire track history